Impacts TAF Board
For situational awareness. Not to be used for flight planning purposes.
IDs:

KPBI - Palm Beach Intl, FL, US

Issued at 0251 UTC 19 Aug 2019
Updated at 0529 UTC 19 Aug 2019
Potential Impact None Slight Moderate High
Time0453Z 19/06Z 19/07Z 19/08Z 19/09Z 19/10Z 19/11Z 19/12Z 19/13Z 19/14Z 19/15Z 19/16Z 19/17Z 19/18Z>>
Type OBS PRVL PRVL PRVL PRVL PRVL PRVL PRVL PRVL PRVL PRVL PRVL PRVL PRVL
VIS 10 >6 >6 >6 >6 >6 >6 >6 >6 >6 >6 >6 >6 >6
CIG -- -- -- -- -- -- -- -- -- -- -- -- -- --
Cover FEW SCT SCT SCT SCT SCT SCT SCT SCT SCT SCT SCT SCT SCT
FltCat VFR VFR VFR VFR VFR VFR VFR VFR VFR VFR VFR VFR VFR VFR
WX -- -- -- -- -- -- -- -- -- -- -- -- -- --
WDir 100 VRB VRB VRB VRB VRB VRB VRB VRB VRB 80 80 80 80
WSpd 5 3 3 3 3 3 3 3 3 3 11 11 11 11
WGst -- -- -- -- -- -- -- -- -- -- -- -- -- --
Raw TAF
KPBI 190251Z 1903/1924 VRB04KT P6SM FEW030
  FM190400 VRB03KT P6SM SCT025 SCT050 SCT250
  FM191500 08011KT P6SM SCT035 SCT060 SCT100
  FM192300 07008KT P6SM FEW030 SCT050 SCT100


Raw METAR
KPBI 190453Z 10005KT 10SM FEW027 29/24 A3008 RMK AO2 SLP185 T02890239 403220244 $
KPBI 190353Z 10007KT 10SM FEW025 29/24 A3009 RMK AO2 SLP188 T02940244 $
KPBI 190253Z 09007KT 10SM FEW025 29/24 A3009 RMK AO2 SLP187 T02940239 53006 $

METAR Board
Radar Display
Forecast Discussion
For situational awareness. Not to be used for flight planning purposes.